Time;durP1;ratioP1;P1;durP2;ratioP2;P2;SDS_P1;SDS_P2;PMS_P1;PMS_P2;Temp;Humidity;BMP_temperature;BMP_pressure;BME280_temperature;BME280_humidity;BME280_pressure;Samples;Min_cycle;Max_cycle;Signal;HPM_P1;HPM_P2
2022/07/29 00:00:01;;;;;;;;;;;17.90;99.90;;;;;;4591099;19;19926;-32
2022/07/29 00:01:32;;;;;;;;;;;17.90;99.90;;;;;;4591823;19;19918;-32
2022/07/29 00:03:03;;;;;;;;;;;17.90;99.90;;;;;;4593247;19;20244;-32
2022/07/29 00:04:34;;;;;;;;;;;17.90;99.90;;;;;;4593285;19;19918;-31
2022/07/29 00:06:06;;;;;;;;;;;17.80;99.90;;;;;;4593195;19;19933;-32
2022/07/29 00:07:36;;;;;;;;;;;17.80;99.90;;;;;;4592501;19;20317;-32
2022/07/29 00:09:07;;;;;;;;;;;17.80;99.90;;;;;;4592683;19;19915;-32
2022/07/29 00:10:38;;;;;;;;;;;17.80;99.90;;;;;;4593545;19;19946;-33
2022/07/29 00:12:10;;;;;;;;;;;17.80;99.90;;;;;;4592891;19;19930;-34
2022/07/29 00:13:41;;;;;;;;;;;17.80;99.90;;;;;;4592087;19;19922;-32
2022/07/29 00:15:12;;;;;;;;;;;17.80;99.90;;;;;;4593068;19;19978;-32
2022/07/29 00:16:43;;;;;;;;;;;17.80;99.90;;;;;;4593430;19;19935;-32
2022/07/29 00:18:14;;;;;;;;;;;17.80;99.90;;;;;;4593228;19;19926;-32
2022/07/29 00:19:45;;;;;;;;;;;17.70;99.90;;;;;;4593398;19;19974;-32
2022/07/29 00:21:16;;;;;;;;;;;17.80;99.90;;;;;;4592950;19;19918;-32
2022/07/29 00:22:47;;;;;;;;;;;17.70;99.90;;;;;;4593399;19;19915;-32
2022/07/29 00:24:18;;;;;;;;;;;17.70;99.90;;;;;;4592562;19;19946;-33
2022/07/29 00:25:49;;;;;;;;;;;17.70;99.90;;;;;;4593357;19;20271;-31
2022/07/29 00:27:20;;;;;;;;;;;17.70;99.90;;;;;;4592642;19;19930;-33
2022/07/29 00:28:51;;;;;;;;;;;17.70;99.90;;;;;;4593149;19;19932;-31
2022/07/29 00:30:22;;;;;;;;;;;17.70;99.90;;;;;;4593103;19;19926;-32
2022/07/29 00:31:53;;;;;;;;;;;17.70;99.90;;;;;;4593145;19;20333;-33
2022/07/29 00:33:24;;;;;;;;;;;17.70;99.90;;;;;;4592663;19;20058;-32
2022/07/29 00:36:45;;;;;;;;;;;17.70;99.90;;;;;;4593095;19;19914;-32
2022/07/29 00:38:18;;;;;;;;;;;17.70;99.90;;;;;;4592407;19;19987;-32
2022/07/29 00:39:49;;;;;;;;;;;17.70;99.90;;;;;;4593109;19;19919;-32
2022/07/29 00:41:20;;;;;;;;;;;17.70;99.90;;;;;;4592826;19;19947;-33
2022/07/29 00:42:51;;;;;;;;;;;17.70;99.90;;;;;;4593146;19;19906;-32
2022/07/29 00:44:22;;;;;;;;;;;17.70;99.90;;;;;;4591056;19;19978;-33
2022/07/29 00:45:53;;;;;;;;;;;17.70;99.90;;;;;;4592635;19;20004;-33
2022/07/29 00:47:24;;;;;;;;;;;17.60;99.90;;;;;;4592603;19;19929;-32
2022/07/29 00:48:55;;;;;;;;;;;17.60;99.90;;;;;;4590014;19;20417;-32
2022/07/29 00:50:26;;;;;;;;;;;17.60;99.90;;;;;;4591631;19;19926;-32
2022/07/29 00:51:57;;;;;;;;;;;17.70;99.90;;;;;;4591808;19;19932;-32
2022/07/29 00:53:29;;;;;;;;;;;17.60;99.90;;;;;;4591482;19;19911;-33
2022/07/29 00:55:00;;;;;;;;;;;17.60;99.90;;;;;;4591513;19;19922;-33
2022/07/29 00:56:31;;;;;;;;;;;17.60;99.90;;;;;;4591715;19;19955;-32
2022/07/29 00:58:02;;;;;;;;;;;17.60;99.90;;;;;;4592458;19;20233;-34
2022/07/29 00:59:34;;;;;;;;;;;17.50;99.90;;;;;;4591051;19;19922;-31
2022/07/29 01:01:05;;;;;;;;;;;17.60;99.90;;;;;;4591999;19;19929;-32
2022/07/29 01:02:36;;;;;;;;;;;17.50;99.90;;;;;;4592440;19;19940;-32
2022/07/29 01:04:07;;;;;;;;;;;17.50;99.90;;;;;;4592344;19;19974;-32
2022/07/29 01:05:38;;;;;;;;;;;17.50;99.90;;;;;;4591126;19;19919;-32
2022/07/29 01:07:09;;;;;;;;;;;17.50;99.90;;;;;;4591105;19;19926;-32
2022/07/29 01:08:40;;;;;;;;;;;17.50;99.90;;;;;;4591962;19;19919;-32
2022/07/29 01:10:11;;;;;;;;;;;17.50;99.90;;;;;;4592309;19;19945;-33
2022/07/29 01:11:43;;;;;;;;;;;17.40;99.90;;;;;;4591221;19;19919;-33
2022/07/29 01:13:14;;;;;;;;;;;17.50;99.90;;;;;;4591398;19;19922;-32
2022/07/29 01:14:45;;;;;;;;;;;17.40;99.90;;;;;;4592373;19;20324;-32
2022/07/29 01:16:25;;;;;;;;;;;17.40;99.90;;;;;;4592272;19;20325;-32
2022/07/29 01:18:11;;;;;;;;;;;17.40;99.90;;;;;;4591226;19;19923;-32
2022/07/29 01:19:50;;;;;;;;;;;17.40;99.90;;;;;;4591948;19;20248;-34
2022/07/29 01:21:25;;;;;;;;;;;17.40;99.90;;;;;;4590892;19;19910;-32
2022/07/29 01:23:10;;;;;;;;;;;17.40;99.90;;;;;;4591369;19;19932;-31
2022/07/29 01:24:44;;;;;;;;;;;17.30;99.90;;;;;;4590633;19;19930;-32
2022/07/29 01:26:15;;;;;;;;;;;17.30;99.90;;;;;;4591231;19;20238;-32
2022/07/29 01:27:46;;;;;;;;;;;17.40;99.90;;;;;;4591955;19;19929;-32
2022/07/29 01:29:27;;;;;;;;;;;17.30;99.90;;;;;;4591496;19;20317;-33
2022/07/29 01:30:58;;;;;;;;;;;17.30;99.90;;;;;;4592301;19;19915;-33
2022/07/29 01:32:30;;;;;;;;;;;17.30;99.90;;;;;;4590312;19;19919;-32
2022/07/29 01:34:02;;;;;;;;;;;17.30;99.90;;;;;;4591393;19;19922;-32
2022/07/29 01:35:35;;;;;;;;;;;17.30;99.90;;;;;;4591299;19;19918;-33
2022/07/29 01:37:17;;;;;;;;;;;17.30;99.90;;;;;;4591805;19;19914;-32
2022/07/29 01:38:51;;;;;;;;;;;17.30;99.90;;;;;;4590340;19;19975;-32
2022/07/29 01:40:24;;;;;;;;;;;17.30;99.90;;;;;;4590437;19;19993;-32
2022/07/29 01:41:57;;;;;;;;;;;17.30;99.90;;;;;;4591483;19;19938;-31
2022/07/29 01:43:31;;;;;;;;;;;17.30;99.90;;;;;;4590889;19;19981;-32
2022/07/29 01:45:22;;;;;;;;;;;17.30;99.90;;;;;;4590122;19;20372;-32
2022/07/29 01:46:54;;;;;;;;;;;17.30;99.90;;;;;;4591788;19;20289;-31
2022/07/29 01:48:28;;;;;;;;;;;17.20;99.90;;;;;;4589223;19;19918;-31
2022/07/29 01:49:59;;;;;;;;;;;17.20;99.90;;;;;;4588768;19;19919;-32
2022/07/29 01:51:41;;;;;;;;;;;17.20;99.90;;;;;;4590116;19;19982;-32
2022/07/29 01:53:12;;;;;;;;;;;17.20;99.90;;;;;;4589638;19;19915;-32
2022/07/29 01:54:45;;;;;;;;;;;17.20;99.90;;;;;;4589810;19;19923;-32
2022/07/29 01:56:16;;;;;;;;;;;17.20;99.90;;;;;;4589591;19;19943;-32
2022/07/29 01:57:47;;;;;;;;;;;17.20;99.90;;;;;;4589262;19;20328;-33
2022/07/29 01:59:18;;;;;;;;;;;17.20;99.90;;;;;;4588944;19;19966;-32
2022/07/29 02:00:49;;;;;;;;;;;17.20;99.90;;;;;;4589289;19;19922;-33
2022/07/29 02:02:20;;;;;;;;;;;17.20;99.90;;;;;;4588924;19;19919;-33
2022/07/29 02:03:51;;;;;;;;;;;17.20;99.90;;;;;;4588694;19;19925;-34
2022/07/29 02:05:23;;;;;;;;;;;17.20;99.90;;;;;;4588072;19;20252;-32
2022/07/29 02:06:54;;;;;;;;;;;17.20;99.90;;;;;;4589261;19;19919;-32
2022/07/29 02:08:25;;;;;;;;;;;17.20;99.90;;;;;;4588864;19;19915;-33
2022/07/29 02:09:56;;;;;;;;;;;17.20;99.90;;;;;;4588991;19;19974;-33
2022/07/29 02:11:27;;;;;;;;;;;17.20;99.90;;;;;;4588930;19;20292;-31
2022/07/29 02:12:58;;;;;;;;;;;17.20;99.90;;;;;;4588942;19;20267;-31
2022/07/29 02:14:31;;;;;;;;;;;17.20;99.90;;;;;;4588356;19;19942;-33
2022/07/29 02:16:03;;;;;;;;;;;17.20;99.90;;;;;;4588915;19;19919;-31
2022/07/29 02:17:44;;;;;;;;;;;17.10;99.90;;;;;;4588658;19;20308;-32
2022/07/29 02:19:15;;;;;;;;;;;17.10;99.90;;;;;;4589590;19;19998;-31
2022/07/29 02:20:49;;;;;;;;;;;17.10;99.90;;;;;;4588824;19;19953;-33
2022/07/29 02:22:20;;;;;;;;;;;17.10;99.90;;;;;;4589121;19;19947;-34
2022/07/29 02:23:52;;;;;;;;;;;17.20;99.90;;;;;;4590662;19;19946;-31
2022/07/29 02:25:23;;;;;;;3.22;1.70;;;17.40;99.90;;;;;;4587761;19;19910;-33
2022/07/29 02:26:55;;;;;;;3.50;2.10;;;17.80;99.90;;;;;;4591333;19;20013;-31
2022/07/29 02:28:27;;;;;;;;;;;18.10;99.90;;;;;;4590900;19;20037;-33
2022/07/29 02:29:58;;;;;;;;;;;18.40;99.90;;;;;;4589178;19;19926;-32
2022/07/29 02:31:33;;;;;;;;;;;18.70;99.90;;;;;;4589673;19;19928;-32
2022/07/29 02:33:04;;;;;;;;;;;18.90;99.90;;;;;;4589466;19;19970;-32
2022/07/29 02:34:35;;;;;;;;;;;19.10;99.90;;;;;;4589010;19;19925;-33
2022/07/29 02:36:06;;;;;;;;;;;19.20;99.90;;;;;;4587659;19;19919;-32
2022/07/29 02:37:37;;;;;;;;;;;19.40;99.90;;;;;;4589414;19;19918;-32
2022/07/29 02:39:08;;;;;;;;;;;19.50;99.90;;;;;;4588750;19;19911;-33
2022/07/29 02:40:39;;;;;;;;;;;19.60;99.90;;;;;;4589001;19;19915;-33
2022/07/29 02:42:11;;;;;;;;;;;19.70;99.90;;;;;;4588799;19;19930;-33
2022/07/29 02:43:42;;;;;;;;;;;19.80;99.90;;;;;;4589586;19;20022;-33
2022/07/29 02:45:13;;;;;;;;;;;19.90;99.90;;;;;;4587895;19;19923;-33
2022/07/29 02:46:53;;;;;;;;;;;19.90;99.90;;;;;;4588893;19;20020;-33
2022/07/29 02:48:27;;;;;;;;;;;20.00;99.90;;;;;;4588738;19;20309;-33
2022/07/29 02:50:01;;;;;;;;;;;20.00;99.90;;;;;;4587439;19;19925;-33
2022/07/29 02:51:33;;;;;;;;;;;20.10;99.90;;;;;;4588463;19;19930;-32
2022/07/29 02:53:05;;;;;;;;;;;20.10;99.90;;;;;;4590478;19;19919;-33
2022/07/29 02:54:41;;;;;;;;;;;20.20;99.90;;;;;;4589642;19;19919;-33
2022/07/29 02:56:13;;;;;;;;;;;20.20;99.90;;;;;;4590839;19;20122;-32
2022/07/29 02:57:47;;;;;;;;;;;20.20;99.90;;;;;;4589348;19;19970;-31
2022/07/29 02:59:19;;;;;;;;;;;20.30;99.90;;;;;;4589611;19;19982;-34
2022/07/29 03:00:51;;;;;;;;;;;20.30;99.90;;;;;;4590341;19;20245;-33
2022/07/29 03:02:22;;;;;;;;;;;20.40;99.90;;;;;;4590750;19;19915;-31
2022/07/29 03:03:53;;;;;;;;;;;20.40;99.90;;;;;;4589267;19;19918;-33
2022/07/29 03:05:24;;;;;;;;;;;20.40;99.90;;;;;;4588315;19;20032;-33
2022/07/29 03:06:56;;;;;;;;;;;20.50;99.90;;;;;;4590509;19;19939;-33
2022/07/29 03:08:27;;;;;;;;;;;20.50;99.90;;;;;;4588571;19;19914;-32
2022/07/29 03:09:58;;;;;;;;;;;20.50;99.90;;;;;;4588416;19;20353;-33
2022/07/29 03:11:29;;;;;;;;;;;20.60;99.90;;;;;;4590055;19;19922;-33
2022/07/29 03:13:00;;;;;;;;;;;20.60;99.90;;;;;;4587463;19;20344;-33
2022/07/29 03:14:31;;;;;;;;;;;20.60;99.90;;;;;;4588683;19;19946;-34
2022/07/29 03:16:02;;;;;;;;;;;20.60;99.90;;;;;;4589076;19;19915;-33
2022/07/29 03:17:33;;;;;;;;;;;20.70;99.90;;;;;;4588459;19;19918;-33
2022/07/29 03:19:04;;;;;;;;;;;20.70;99.90;;;;;;4589654;19;19974;-32
2022/07/29 03:20:36;;;;;;;;;;;20.70;99.90;;;;;;4588917;19;19935;-33
2022/07/29 03:22:07;;;;;;;;;;;20.70;99.90;;;;;;4590013;19;19915;-32
2022/07/29 03:23:39;;;;;;;;;;;20.70;99.90;;;;;;4589504;19;19918;-32
2022/07/29 03:25:10;;;;;;;;;;;20.70;99.90;;;;;;4588168;19;20348;-33
2022/07/29 03:26:41;;;;;;;;;;;20.80;99.90;;;;;;4589648;19;19941;-33
2022/07/29 03:28:12;;;;;;;;;;;20.80;99.90;;;;;;4587814;19;19918;-33
2022/07/29 03:29:43;;;;;;;;;;;20.80;99.90;;;;;;4589001;19;19915;-33
2022/07/29 03:31:14;;;;;;;;;;;20.90;99.90;;;;;;4589851;19;19911;-33
2022/07/29 03:32:45;;;;;;;;;;;20.90;99.90;;;;;;4590308;19;20329;-33
2022/07/29 03:34:16;;;;;;;;;;;20.90;99.90;;;;;;4590173;19;19915;-33
2022/07/29 03:35:47;;;;;;;;;;;20.90;99.90;;;;;;4590556;19;19928;-33
2022/07/29 03:37:18;;;;;;;;;;;20.90;99.90;;;;;;4590035;19;19914;-33
2022/07/29 03:38:49;;;;;;;;;;;20.90;99.90;;;;;;4590395;19;19922;-33
2022/07/29 03:40:22;;;;;;;;;;;21.00;99.90;;;;;;4590074;19;19941;-33
2022/07/29 03:41:53;;;;;;;;;;;21.00;99.90;;;;;;4589570;19;19928;-34
2022/07/29 03:43:24;;;;;;;;;;;21.00;99.90;;;;;;4588865;19;19919;-34
2022/07/29 03:44:55;;;;;;;;;;;21.00;99.90;;;;;;4588773;19;19935;-35
2022/07/29 03:46:26;;;;;;;;;;;21.00;99.90;;;;;;4589992;19;19994;-33
2022/07/29 03:47:59;;;;;;;;;;;21.00;99.90;;;;;;4590604;19;19978;-33
2022/07/29 03:49:30;;;;;;;;;;;21.10;99.90;;;;;;4592327;19;19934;-34
2022/07/29 03:51:01;;;;;;;;;;;21.10;99.90;;;;;;4593595;19;19919;-33
2022/07/29 03:52:32;;;;;;;;;;;21.10;99.90;;;;;;4594190;19;19918;-35
2022/07/29 03:54:03;;;;;;;;;;;21.10;99.90;;;;;;4594203;19;20303;-34
2022/07/29 03:55:36;;;;;;;;;;;21.10;99.90;;;;;;4594284;19;19915;-33
2022/07/29 03:57:07;;;;;;;;;;;21.20;99.90;;;;;;4594571;19;19922;-33
2022/07/29 03:58:38;;;;;;;;;;;21.20;99.90;;;;;;4593145;19;19919;-33
2022/07/29 04:00:09;;;;;;;;;;;21.20;99.90;;;;;;4593612;19;19923;-33
2022/07/29 04:01:40;;;;;;;;;;;21.20;99.90;;;;;;4594503;19;19922;-33
2022/07/29 04:03:11;;;;;;;;;;;21.20;99.90;;;;;;4593358;19;19915;-33
2022/07/29 04:04:42;;;;;;;;;;;21.30;99.90;;;;;;4593562;19;19919;-33
2022/07/29 04:06:13;;;;;;;;;;;21.20;99.90;;;;;;4593875;19;19979;-32
2022/07/29 04:07:44;;;;;;;;;;;21.30;99.90;;;;;;4594084;19;19919;-33
2022/07/29 04:09:15;;;;;;;;;;;21.20;99.90;;;;;;4594586;19;19914;-32
2022/07/29 04:10:47;;;;;;;;;;;21.30;99.90;;;;;;4593642;19;19939;-33
2022/07/29 04:12:18;;;;;;;;;;;21.30;99.90;;;;;;4593023;19;19919;-34
2022/07/29 04:13:49;;;;;;;;;;;21.30;99.90;;;;;;4593791;19;19938;-33
2022/07/29 04:15:20;;;;;;;;;;;21.30;99.90;;;;;;4594453;19;19911;-33
2022/07/29 04:16:51;;;;;;;;;;;21.30;99.90;;;;;;4593770;19;19919;-33
2022/07/29 04:18:22;;;;;;;;;;;21.30;99.90;;;;;;4592558;19;20345;-33
2022/07/29 04:19:53;;;;;;;;;;;21.30;99.90;;;;;;4592796;19;19977;-34
2022/07/29 04:21:24;;;;;;;;;;;21.40;99.90;;;;;;4591269;19;19947;-33
2022/07/29 04:22:55;;;;;;;;;;;21.40;99.90;;;;;;4592922;19;20221;-33
2022/07/29 04:24:26;;;;;;;;;;;21.30;99.90;;;;;;4593335;19;19919;-32
2022/07/29 04:25:57;;;;;;;;;;;21.40;99.90;;;;;;4594047;19;19914;-33
2022/07/29 04:27:28;;;;;;;;;;;21.40;99.90;;;;;;4593513;19;19918;-35
2022/07/29 04:28:59;;;;;;;;;;;21.40;99.90;;;;;;4593795;19;20321;-33
2022/07/29 04:30:30;;;;;;;;;;;21.40;99.90;;;;;;4594289;19;19922;-32
2022/07/29 04:32:01;;;;;;;;;;;21.40;99.90;;;;;;4594101;19;19975;-33
2022/07/29 04:33:32;;;;;;;;;;;21.40;99.90;;;;;;4593439;19;19934;-33
2022/07/29 04:35:04;;;;;;;;;;;21.40;99.90;;;;;;4592687;19;19915;-34
2022/07/29 04:36:35;;;;;;;;;;;21.40;99.90;;;;;;4592972;19;19925;-33
2022/07/29 04:38:06;;;;;;;;;;;21.50;99.90;;;;;;4594295;19;20325;-32
2022/07/29 04:39:36;;;;;;;;;;;21.50;99.90;;;;;;4593050;19;19911;-33
2022/07/29 04:41:08;;;;;;;;;;;21.50;99.90;;;;;;4593573;19;20301;-32
2022/07/29 04:42:39;;;;;;;;;;;21.50;99.90;;;;;;4594162;19;20306;-32
2022/07/29 04:44:10;;;;;;;;;;;21.50;99.90;;;;;;4593006;19;19919;-33
2022/07/29 04:45:41;;;;;;;;;;;21.50;99.90;;;;;;4592012;19;19931;-32
2022/07/29 04:47:12;;;;;;;;;;;21.50;99.90;;;;;;4593330;19;20268;-34
2022/07/29 04:48:44;;;;;;;;;;;21.50;99.90;;;;;;4593351;19;19960;-34
2022/07/29 04:50:16;;;;;;;;;;;21.50;99.90;;;;;;4591859;19;20336;-33
2022/07/29 04:51:47;;;;;;;;;;;21.50;99.90;;;;;;4593066;19;19997;-33
2022/07/29 04:53:19;;;;;;;;;;;21.50;99.90;;;;;;4593150;19;19914;-33
2022/07/29 04:54:52;;;;;;;;;;;21.50;99.90;;;;;;4593655;19;19915;-33
2022/07/29 04:56:23;;;;;;;;;;;21.50;99.90;;;;;;4592991;19;19922;-32
2022/07/29 04:57:54;;;;;;;;;;;21.60;99.90;;;;;;4593032;19;19911;-34
2022/07/29 04:59:26;;;;;;;;;;;21.60;99.90;;;;;;4592314;19;19931;-33
2022/07/29 05:00:57;;;;;;;;;;;21.60;99.90;;;;;;4592243;19;20352;-34
2022/07/29 05:02:28;;;;;;;;;;;21.50;99.90;;;;;;4592685;19;19915;-33
2022/07/29 05:03:59;;;;;;;;;;;21.60;99.90;;;;;;4592150;19;19919;-33
2022/07/29 05:05:30;;;;;;;;;;;21.60;99.90;;;;;;4591611;19;19930;-32
2022/07/29 05:07:01;;;;;;;;;;;21.60;99.90;;;;;;4592495;19;20302;-32
2022/07/29 05:08:32;;;;;;;;;;;21.60;99.90;;;;;;4592361;19;19950;-33
2022/07/29 05:10:03;;;;;;;;;;;21.60;99.90;;;;;;4589939;19;19938;-33
2022/07/29 05:11:34;;;;;;;;;;;21.60;99.90;;;;;;4592817;19;19918;-33
2022/07/29 05:13:06;;;;;;;;;;;21.60;99.90;;;;;;4593133;19;19919;-33
2022/07/29 05:14:37;;;;;;;;;;;21.60;99.90;;;;;;4590955;19;19926;-33
2022/07/29 05:16:08;;;;;;;;;;;21.60;99.90;;;;;;4592606;19;19922;-33
2022/07/29 05:17:39;;;;;;;;;;;21.60;99.90;;;;;;4592113;19;19915;-35
2022/07/29 05:19:10;;;;;;;;;;;21.60;99.90;;;;;;4591423;19;20245;-34
2022/07/29 05:20:41;;;;;;;;;;;21.60;99.90;;;;;;4592190;19;19918;-33
2022/07/29 05:22:12;;;;;;;;;;;21.60;99.90;;;;;;4591487;19;19918;-35
2022/07/29 05:23:43;;;;;;;;;;;21.60;99.90;;;;;;4591863;19;19922;-33
2022/07/29 05:25:14;;;;;;;;;;;21.70;99.90;;;;;;4590272;19;20421;-33
2022/07/29 05:26:45;;;;;;;;;;;21.60;99.90;;;;;;4592529;19;19923;-33
2022/07/29 05:28:16;;;;;;;;;;;21.70;99.90;;;;;;4592366;19;19926;-33
2022/07/29 05:29:47;;;;;;;;;;;21.70;99.90;;;;;;4591040;19;20277;-33
2022/07/29 05:31:18;;;;;;;;;;;21.70;99.90;;;;;;4593047;19;19919;-33
2022/07/29 05:32:49;;;;;;;;;;;21.70;99.90;;;;;;4591838;19;19924;-33
2022/07/29 05:34:20;;;;;;;;;;;21.70;99.90;;;;;;4592717;19;19919;-34
2022/07/29 05:35:51;;;;;;;;;;;21.80;99.90;;;;;;4592014;19;19927;-32
2022/07/29 05:37:22;;;;;;;;;;;21.90;99.90;;;;;;4591206;19;19919;-33
2022/07/29 05:38:53;;;;;;;;;;;21.90;99.90;;;;;;4591861;19;20247;-33
2022/07/29 05:40:24;;;;;;;;;;;21.90;99.90;;;;;;4590771;19;19919;-33
2022/07/29 05:41:56;;;;;;;;;;;21.90;99.90;;;;;;4592633;19;20355;-32
2022/07/29 05:43:27;;;;;;;;;;;21.90;99.90;;;;;;4591489;19;20281;-32
2022/07/29 05:44:58;;;;;;;;;;;22.00;99.90;;;;;;4591931;19;19918;-34
2022/07/29 05:46:29;;;;;;;;;;;22.10;99.90;;;;;;4591814;19;19923;-33
2022/07/29 05:48:00;;;;;;;;;;;22.20;99.90;;;;;;4592625;19;19978;-32
2022/07/29 05:49:31;;;;;;;;;;;22.30;99.90;;;;;;4589561;19;20308;-29
2022/07/29 05:51:02;;;;;;;;;;;22.40;99.90;;;;;;4589814;19;20512;-32
2022/07/29 05:52:33;;;;;;;;;;;22.50;99.90;;;;;;4592152;19;19919;-31
2022/07/29 05:54:04;;;;;;;;;;;22.60;99.90;;;;;;4591371;19;19926;-30
2022/07/29 05:55:36;;;;;;;;;;;22.60;99.90;;;;;;4592815;19;19925;-33
2022/07/29 05:57:15;;;;;;;;;;;22.60;99.90;;;;;;4591669;19;19926;-30
2022/07/29 05:58:46;;;;;;;;;;;22.60;99.90;;;;;;4590915;19;20377;-32
2022/07/29 06:00:16;;;;;;;;;;;22.30;99.90;;;;;;4590984;19;19923;-34
2022/07/29 06:01:49;;;;;;;;;;;22.10;99.90;;;;;;4591023;19;19915;-33
2022/07/29 06:03:21;;;;;;;;;;;22.00;99.90;;;;;;4591240;19;19915;-32
2022/07/29 06:04:56;;;;;;;;;;;21.80;99.90;;;;;;4590346;19;20333;-32
2022/07/29 06:06:29;;;;;;;;;;;21.70;99.90;;;;;;4591484;19;19907;-31
2022/07/29 06:08:01;;;;;;;;;;;21.70;99.90;;;;;;4590801;19;19985;-33
2022/07/29 06:09:33;;;;;;;;;;;21.60;99.90;;;;;;4591851;19;19911;-33
2022/07/29 06:11:04;;;;;;;;;;;21.60;99.90;;;;;;4587215;19;20377;-33
2022/07/29 06:12:43;;;;;;;;;;;21.50;99.90;;;;;;4588856;19;19923;-33
2022/07/29 06:14:15;;;;;;;;;;;21.60;99.90;;;;;;4591667;19;19922;-33
2022/07/29 06:15:46;;;;;;;;;;;21.50;99.90;;;;;;4591204;19;19923;-33
2022/07/29 06:17:18;;;;;;;;;;;21.40;99.90;;;;;;4591911;19;19918;-34
2022/07/29 06:18:52;;;;;;;;;;;21.30;99.90;;;;;;4589305;19;19922;-33
2022/07/29 06:20:23;;;;;;;;;;;21.10;99.90;;;;;;4590601;19;20357;-34
2022/07/29 06:21:54;;;;;;;;;;;21.10;99.90;;;;;;4590919;19;19956;-33
2022/07/29 06:23:25;;;;;;;;;;;21.10;99.90;;;;;;4588692;19;20012;-33
2022/07/29 06:24:56;;;;;;;;;;;21.00;99.90;;;;;;4588913;19;20409;-33
2022/07/29 06:26:27;;;;;;;;;;;20.80;99.90;;;;;;4587640;19;19950;-33
2022/07/29 06:27:58;;;;;;;;;;;20.60;99.90;;;;;;4589695;19;19956;-33
2022/07/29 06:29:30;;;;;;;;;;;20.40;99.90;;;;;;4588594;19;19918;-33
2022/07/29 06:31:01;;;;;;;;;;;20.40;99.90;;;;;;4588641;19;19942;-34
2022/07/29 06:32:33;;;;;;;;;;;20.70;99.90;;;;;;4585973;19;19926;-34
2022/07/29 06:34:04;;;;;;;;;;;21.00;99.90;;;;;;4587392;19;20268;-33
2022/07/29 06:35:38;;;;;;;;;;;21.30;99.90;;;;;;4588741;19;19922;-32
2022/07/29 06:37:11;;;;;;;;;;;21.40;99.90;;;;;;4587859;19;20285;-32
2022/07/29 06:38:47;;;;;;;;;;;21.60;99.90;;;;;;4589346;19;20246;-33
2022/07/29 06:42:09;;;;;;;;;;;21.80;99.90;;;;;;4588527;19;19915;-32
2022/07/29 06:43:41;;;;;;;;;;;21.90;99.90;;;;;;4588516;19;20301;-32
2022/07/29 06:45:13;;;;;;;;;;;22.00;99.90;;;;;;4585709;19;19915;-32
2022/07/29 06:46:48;;;;;;;;;;;22.00;99.90;;;;;;4588720;19;19923;-33
2022/07/29 06:48:25;;;;;;;;;;;21.80;99.90;;;;;;4587714;19;19914;-31
2022/07/29 06:50:05;;;;;;;;;;;21.60;99.90;;;;;;4587260;19;19941;-32
2022/07/29 06:51:43;;;;;;;;;;;21.40;99.90;;;;;;4587038;19;20339;-32
2022/07/29 06:53:19;;;;;;;;;;;21.30;99.90;;;;;;4588942;19;19919;-33
2022/07/29 06:54:54;;;;;;;;;;;21.30;99.90;;;;;;4588456;19;19978;-33
2022/07/29 06:56:28;;;;;;;;;;;21.20;99.90;;;;;;4589612;19;19974;-33
2022/07/29 06:58:03;;;;;;;;;;;21.10;99.90;;;;;;4592304;19;19922;-31
2022/07/29 06:59:34;;;;;;;;;;;21.10;99.90;;;;;;4590169;19;19926;-33
2022/07/29 07:01:05;;;;;;;;;;;21.10;99.90;;;;;;4591363;19;19915;-32
2022/07/29 07:02:36;;;;;;;;;;;21.40;99.90;;;;;;4590741;19;19937;-33
2022/07/29 07:04:11;;;;;;;;;;;21.60;99.90;;;;;;4591298;19;19986;-32
2022/07/29 07:05:42;;;;;;;;;;;21.80;99.90;;;;;;4590695;19;19922;-33
2022/07/29 07:07:13;;;;;;;;;;;22.00;99.90;;;;;;4591465;19;19927;-33
2022/07/29 07:08:44;;;;;;;;;;;22.10;99.90;;;;;;4592133;19;19915;-34
2022/07/29 07:10:15;;;;;;;;;;;22.20;99.90;;;;;;4591876;19;19919;-33
2022/07/29 07:11:46;;;;;;;;;;;22.20;99.90;;;;;;4591720;19;19922;-33
2022/07/29 07:13:17;;;;;;;;;;;22.30;99.90;;;;;;4589278;19;19991;-33
2022/07/29 07:14:48;;;;;;;;;;;22.30;99.90;;;;;;4589475;19;19918;-33
2022/07/29 07:16:19;;;;;;;;;;;22.20;99.90;;;;;;4589823;19;19949;-34
2022/07/29 07:17:50;;;;;;;;;;;21.70;99.90;;;;;;4590280;19;19919;-33
2022/07/29 07:19:21;;;;;;;;;;;21.20;99.90;;;;;;4590189;19;19919;-34
2022/07/29 07:20:51;;;;;;;;;;;20.90;99.90;;;;;;4589153;19;19926;-33
2022/07/29 07:22:22;;;;;;;;;;;20.70;99.90;;;;;;4592223;19;19953;-33
2022/07/29 07:23:53;;;;;;;;;;;20.50;99.90;;;;;;4594754;19;19919;-34
2022/07/29 07:25:24;;;;;;;;;;;20.40;99.90;;;;;;4594004;19;19970;-33
2022/07/29 07:26:55;;;;;;;;;;;20.30;99.90;;;;;;4595461;19;20358;-33
2022/07/29 07:28:26;;;;;;;;;;;20.30;99.90;;;;;;4593900;19;19933;-33
2022/07/29 07:29:57;;;;;;;;;;;20.20;99.90;;;;;;4592003;19;20266;-34
2022/07/29 07:31:28;;;;;;;;;;;20.20;99.90;;;;;;4594054;19;20320;-32
2022/07/29 07:32:59;;;;;;;;;;;20.20;99.90;;;;;;4593786;19;19910;-32
2022/07/29 07:34:30;;;;;;;;;;;20.10;99.90;;;;;;4593504;19;19929;-32
2022/07/29 07:36:01;;;;;;;;;;;20.10;99.90;;;;;;4594195;19;20269;-33
2022/07/29 07:37:32;;;;;;;;;;;20.10;99.90;;;;;;4595497;19;20002;-33
2022/07/29 07:39:05;;;;;;;;;;;20.10;99.90;;;;;;4593397;19;19942;-33
2022/07/29 07:40:36;;;;;;;;;;;20.10;99.90;;;;;;4594112;19;19974;-32
2022/07/29 07:42:12;;;;;;;;;;;20.00;99.90;;;;;;4595029;19;19933;-32
2022/07/29 07:43:43;;;;;;;;;;;20.00;99.90;;;;;;4594880;19;19966;-34
2022/07/29 07:45:14;;;;;;;;;;;20.00;99.90;;;;;;4592411;19;19934;-32
2022/07/29 07:46:45;;;;;;;;;;;20.00;99.90;;;;;;4594108;19;20384;-34
2022/07/29 07:48:16;;;;;;;;;;;20.00;99.90;;;;;;4594608;19;19942;-33
2022/07/29 07:49:47;;;;;;;;;;;20.00;99.90;;;;;;4593866;19;20333;-32
2022/07/29 07:51:18;;;;;;;;;;;20.00;99.90;;;;;;4593213;19;20358;-33
2022/07/29 07:52:50;;;;;;;;;;;20.00;99.90;;;;;;4594355;19;19939;-34
2022/07/29 07:54:23;;;;;;;;;;;20.00;99.90;;;;;;4593600;19;19945;-33
2022/07/29 07:55:54;;;;;;;;;;;19.90;99.90;;;;;;4594060;19;20010;-32
2022/07/29 07:57:25;;;;;;;;;;;19.90;99.90;;;;;;4594110;19;19922;-32
2022/07/29 07:58:56;;;;;;;;;;;19.90;99.90;;;;;;4594239;19;19926;-32
2022/07/29 08:00:27;;;;;;;;;;;19.90;99.90;;;;;;4594374;19;19911;-33
2022/07/29 08:01:58;;;;;;;;;;;19.90;99.90;;;;;;4592964;19;20245;-33
2022/07/29 08:03:29;;;;;;;;;;;19.90;99.90;;;;;;4593581;19;19938;-33
2022/07/29 08:05:00;;;;;;;;;;;19.90;99.90;;;;;;4593772;19;19978;-34
2022/07/29 08:06:31;;;;;;;;;;;19.90;99.90;;;;;;4594449;19;19911;-33
2022/07/29 08:08:02;;;;;;;;;;;19.90;99.90;;;;;;4593810;19;19911;-34
2022/07/29 08:09:34;;;;;;;;;;;19.90;99.90;;;;;;4594335;19;20244;-33
2022/07/29 08:11:06;;;;;;;;;;;19.90;99.90;;;;;;4594512;19;19927;-33
2022/07/29 08:12:37;;;;;;;;;;;19.90;99.90;;;;;;4594172;19;19938;-32
2022/07/29 08:14:07;;;;;;;;;;;19.90;99.90;;;;;;4592706;19;19941;-33
2022/07/29 08:15:38;;;;;;;;;;;19.90;99.90;;;;;;4593033;19;19915;-33
2022/07/29 08:17:11;;;;;;;;;;;19.90;99.90;;;;;;4594271;19;19978;-33
2022/07/29 08:18:42;;;;;;;;;;;19.90;99.90;;;;;;4593958;19;19914;-33
2022/07/29 08:20:13;;;;;;;;;;;19.90;99.90;;;;;;4593691;19;19919;-34
2022/07/29 08:21:45;;;;;;;;;;;19.90;99.90;;;;;;4594387;19;19926;-33
2022/07/29 08:23:18;;;;;;;;;;;19.90;99.90;;;;;;4594363;19;20256;-33
2022/07/29 08:24:52;;;;;;;;;;;19.90;99.90;;;;;;4593214;19;19925;-33
2022/07/29 08:26:23;;;;;;;;;;;19.90;99.90;;;;;;4593638;19;19919;-33
2022/07/29 08:27:54;;;;;;;;;;;19.90;99.90;;;;;;4594041;19;19910;-32
2022/07/29 08:29:30;;;;;;;;;;;19.90;99.90;;;;;;4593313;19;20323;-32
2022/07/29 08:31:01;;;;;;;;;;;19.90;99.90;;;;;;4593242;19;19911;-32
2022/07/29 08:32:32;;;;;;;;;;;19.90;99.90;;;;;;4593543;19;19919;-32
2022/07/29 08:34:03;;;;;;;;;;;19.90;99.90;;;;;;4592291;19;19914;-33
2022/07/29 08:35:35;;;;;;;;;;;19.90;99.90;;;;;;4593611;19;19915;-34
2022/07/29 08:37:06;;;;;;;;;;;19.90;99.90;;;;;;4593263;19;19919;-32
2022/07/29 08:38:36;;;;;;;;;;;19.90;99.90;;;;;;4593602;19;19911;-32
2022/07/29 08:40:07;;;;;;;;;;;19.90;99.90;;;;;;4593672;19;20266;-32
2022/07/29 08:41:39;;;;;;;;;;;19.90;99.90;;;;;;4593247;19;20245;-33
2022/07/29 08:43:09;;;;;;;;;;;19.90;99.90;;;;;;4593472;19;19922;-33
2022/07/29 08:44:40;;;;;;;;;;;19.90;99.90;;;;;;4593229;19;20238;-32
2022/07/29 08:46:11;;;;;;;;;;;19.90;99.90;;;;;;4592622;19;19937;-32
2022/07/29 08:47:44;;;;;;;;;;;19.90;99.90;;;;;;4592618;19;19975;-33
2022/07/29 08:49:15;;;;;;;;;;;19.90;99.90;;;;;;4592863;19;19918;-34
2022/07/29 08:50:46;;;;;;;;;;;19.90;99.90;;;;;;4592761;19;19948;-32
2022/07/29 08:52:17;;;;;;;;;;;19.90;99.90;;;;;;4593488;19;19926;-33
2022/07/29 08:53:49;;;;;;;;;;;20.00;99.90;;;;;;4591909;19;19964;-33
2022/07/29 08:55:20;;;;;;;;;;;20.30;99.90;;;;;;4592853;19;19914;-33
2022/07/29 08:56:51;;;;;;;;;;;20.30;99.90;;;;;;4592021;19;19915;-33